createdAt,value
2022-09-18T00:01:00.608Z,9.21
2022-09-18T00:03:28.671Z,9.23
2022-09-18T00:05:55.462Z,9.21
2022-09-18T00:08:22.310Z,9.20
2022-09-18T00:10:49.070Z,9.21
2022-09-18T00:13:16.050Z,9.23
2022-09-18T00:15:43.684Z,9.24
2022-09-18T00:18:10.435Z,9.24
2022-09-18T00:20:38.233Z,9.25
2022-09-18T00:23:05.020Z,9.27
2022-09-18T00:25:32.263Z,9.28
2022-09-18T00:27:59.235Z,9.27
2022-09-18T00:30:26.069Z,9.28
2022-09-18T00:32:52.826Z,9.27
2022-09-18T00:35:19.691Z,9.25
2022-09-18T00:37:46.583Z,9.27
2022-09-18T00:40:13.427Z,9.27
2022-09-18T00:42:40.174Z,9.26
2022-09-18T00:45:07.225Z,9.28
2022-09-18T00:47:42.633Z,9.27
2022-09-18T00:50:18.383Z,9.26
2022-09-18T00:53:03.332Z,9.24
2022-09-18T00:55:36.566Z,9.25
2022-09-18T00:58:04.136Z,9.25
2022-09-18T01:00:32.335Z,9.27
2022-09-18T01:03:00.706Z,9.25
2022-09-18T01:05:55.145Z,9.26
2022-09-18T01:08:52.507Z,9.25
2022-09-18T01:11:36.896Z,9.26
2022-09-18T01:14:28.099Z,9.28
2022-09-18T01:17:07.188Z,9.30
2022-09-18T01:20:20.747Z,9.31
2022-09-18T01:23:13.919Z,9.31
2022-09-18T01:26:06.267Z,9.32
2022-09-18T01:28:42.479Z,9.34
2022-09-18T01:31:17.608Z,9.39
2022-09-18T01:33:47.427Z,9.41
2022-09-18T01:36:17.277Z,9.44
2022-09-18T01:38:54.147Z,9.46
2022-09-18T01:41:26.561Z,9.46
2022-09-18T01:44:00.650Z,9.48
2022-09-18T01:46:28.776Z,9.50
2022-09-18T01:49:02.619Z,9.51
2022-09-18T01:51:49.507Z,9.51
2022-09-18T01:54:23.954Z,9.52
2022-09-18T01:57:04.919Z,9.54
2022-09-18T01:59:51.060Z,9.58
2022-09-18T02:02:24.096Z,9.59
2022-09-18T02:04:56.358Z,9.62
2022-09-18T02:07:51.920Z,9.63
2022-09-18T02:10:22.365Z,9.63
2022-09-18T02:12:52.025Z,9.64
2022-09-18T02:15:19.103Z,9.61
2022-09-18T02:17:57.062Z,9.57
2022-09-18T02:20:37.092Z,9.56
2022-09-18T02:23:07.334Z,9.53
2022-09-18T02:25:45.847Z,9.51
2022-09-18T02:28:16.270Z,9.51
2022-09-18T02:30:44.646Z,9.53
2022-09-18T02:33:29.223Z,9.54
2022-09-18T02:36:01.954Z,9.52
2022-09-18T02:39:10.624Z,9.53
2022-09-18T02:41:53.145Z,9.52
2022-09-18T02:44:45.204Z,9.52
2022-09-18T02:47:42.646Z,9.49
2022-09-18T02:50:46.186Z,9.51
2022-09-18T02:53:23.732Z,9.49
2022-09-18T02:56:00.226Z,9.49
2022-09-18T02:58:42.551Z,9.46
2022-09-18T03:01:12.937Z,9.45
2022-09-18T03:03:42.029Z,9.46
2022-09-18T03:06:11.218Z,9.42
2022-09-18T03:08:38.947Z,9.40
2022-09-18T03:11:06.252Z,9.38
2022-09-18T03:13:32.967Z,9.36
2022-09-18T03:15:59.808Z,9.33
2022-09-18T03:18:26.850Z,9.30
2022-09-18T03:20:56.251Z,9.28
2022-09-18T03:23:23.079Z,9.26
2022-09-18T03:25:52.651Z,9.22
2022-09-18T03:28:19.577Z,9.22
2022-09-18T03:30:46.698Z,9.18
2022-09-18T03:33:13.769Z,9.19
2022-09-18T03:35:43.821Z,9.19
2022-09-18T03:38:10.712Z,9.16
2022-09-18T03:40:37.861Z,9.14
2022-09-18T03:43:05.963Z,9.14
2022-09-18T03:45:33.035Z,9.15
2022-09-18T03:48:01.872Z,9.13
2022-09-18T03:50:29.192Z,9.12
2022-09-18T03:52:56.687Z,9.11
2022-09-18T03:55:37.232Z,9.09
2022-09-18T03:58:23.970Z,9.08
2022-09-18T04:01:11.220Z,9.04
2022-09-18T04:03:57.935Z,9.01
2022-09-18T04:06:43.174Z,8.99
2022-09-18T04:09:30.003Z,8.96
2022-09-18T04:11:56.894Z,8.96
2022-09-18T04:14:27.951Z,8.96
2022-09-18T04:16:57.173Z,8.94
2022-09-18T04:19:23.943Z,8.93
2022-09-18T04:21:50.715Z,8.92
2022-09-18T04:24:17.556Z,8.92
2022-09-18T04:26:44.779Z,8.90
2022-09-18T04:29:13.014Z,8.90
2022-09-18T04:31:40.094Z,8.88
2022-09-18T04:34:11.805Z,8.86
2022-09-18T04:36:38.612Z,8.88
2022-09-18T04:39:07.070Z,8.88
2022-09-18T04:41:35.630Z,8.92
2022-09-18T04:44:04.573Z,8.95
2022-09-18T04:46:31.619Z,9.01
2022-09-18T04:49:00.110Z,9.07
2022-09-18T04:51:28.406Z,9.08
2022-09-18T04:53:55.268Z,9.09
2022-09-18T04:56:23.568Z,9.09
2022-09-18T04:58:52.181Z,9.07
2022-09-18T05:01:19.086Z,9.01
2022-09-18T05:03:46.578Z,8.94
2022-09-18T05:06:25.160Z,8.83
2022-09-18T05:08:52.788Z,8.84
2022-09-18T05:11:21.178Z,8.83
2022-09-18T05:13:48.834Z,8.81
2022-09-18T05:16:16.261Z,8.85
2022-09-18T05:18:52.080Z,8.83
2022-09-18T05:21:20.232Z,8.85
2022-09-18T05:23:47.143Z,8.87
2022-09-18T05:26:16.993Z,8.95
2022-09-18T05:28:43.882Z,8.95
2022-09-18T05:31:10.666Z,8.95
2022-09-18T05:33:43.042Z,8.97
2022-09-18T05:36:11.297Z,8.98
2022-09-18T05:38:38.424Z,8.99
2022-09-18T05:41:09.452Z,9.01
2022-09-18T05:43:36.821Z,9.02
2022-09-18T05:46:08.165Z,9.06
2022-09-18T05:48:49.923Z,9.11
2022-09-18T05:51:17.257Z,9.13
2022-09-18T05:53:44.194Z,9.13
2022-09-18T05:56:18.369Z,9.16
2022-09-18T05:58:45.775Z,9.20
2022-09-18T06:01:12.487Z,9.19
2022-09-18T06:04:02.577Z,9.19
2022-09-18T06:06:37.994Z,9.23
2022-09-18T06:09:04.836Z,9.27
2022-09-18T06:11:32.376Z,9.27
2022-09-18T06:13:59.639Z,9.25
2022-09-18T06:16:26.567Z,9.25
2022-09-18T06:18:58.265Z,9.31
2022-09-18T06:21:25.188Z,9.33
2022-09-18T06:23:52.181Z,9.39
2022-09-18T06:26:32.527Z,9.43
2022-09-18T06:28:59.224Z,9.45
2022-09-18T06:31:27.585Z,9.50
2022-09-18T06:34:05.250Z,9.53
2022-09-18T06:36:32.202Z,9.58
2022-09-18T06:39:24.943Z,9.62
2022-09-18T06:41:56.439Z,9.78
2022-09-18T06:44:43.232Z,9.92
2022-09-18T06:47:10.209Z,10.03
2022-09-18T06:49:41.986Z,10.13
2022-09-18T06:52:09.065Z,10.10
2022-09-18T06:54:37.493Z,10.07
2022-09-18T06:57:07.152Z,10.04
2022-09-18T06:59:33.914Z,10.19
2022-09-18T07:02:01.585Z,10.31
2022-09-18T07:04:48.058Z,10.40
2022-09-18T07:07:16.978Z,10.47
2022-09-18T07:09:46.796Z,10.53
2022-09-18T07:12:31.895Z,10.56
2022-09-18T07:14:58.819Z,10.71
2022-09-18T07:17:27.007Z,10.68
2022-09-18T07:19:56.384Z,10.69
2022-09-18T07:22:32.254Z,10.77
2022-09-18T07:24:59.046Z,10.80
2022-09-18T07:27:25.798Z,10.71
2022-09-18T07:29:53.630Z,10.81
2022-09-18T07:32:20.369Z,10.72
2022-09-18T07:34:48.539Z,10.84
2022-09-18T07:37:22.801Z,10.88
2022-09-18T07:39:58.481Z,10.90
2022-09-18T07:42:45.538Z,10.98
2022-09-18T07:45:13.460Z,11.02
2022-09-18T07:47:41.390Z,11.08
2022-09-18T07:50:10.861Z,11.10
2022-09-18T07:52:37.674Z,11.14
2022-09-18T07:55:04.834Z,11.14
2022-09-18T07:57:34.161Z,11.27
2022-09-18T08:00:26.683Z,11.45
2022-09-18T08:03:05.303Z,11.47
2022-09-18T08:06:07.525Z,11.46
2022-09-18T08:08:35.922Z,11.51
2022-09-18T08:11:21.664Z,11.53
2022-09-18T08:14:20.006Z,11.79
2022-09-18T08:17:10.054Z,11.88
2022-09-18T08:19:40.560Z,11.77
2022-09-18T08:22:12.181Z,11.76
2022-09-18T08:24:44.907Z,11.85
2022-09-18T08:27:11.762Z,11.81
2022-09-18T08:29:40.087Z,11.84
2022-09-18T08:32:10.090Z,11.82
2022-09-18T08:34:37.859Z,11.75
2022-09-18T08:37:05.271Z,11.77
2022-09-18T08:39:50.881Z,11.79
2022-09-18T08:42:46.435Z,11.83
2022-09-18T08:45:16.117Z,12.02
2022-09-18T08:47:50.427Z,11.96
2022-09-18T08:50:29.350Z,11.87
2022-09-18T08:53:04.865Z,11.85
2022-09-18T08:56:00.572Z,11.85
2022-09-18T08:58:52.111Z,11.88
2022-09-18T09:01:20.122Z,11.81
2022-09-18T09:04:06.451Z,11.82
2022-09-18T09:06:42.552Z,11.75
2022-09-18T09:09:24.982Z,11.80
2022-09-18T09:12:03.432Z,11.68
2022-09-18T09:14:57.975Z,11.65
2022-09-18T09:17:45.104Z,11.57
2022-09-18T09:20:52.193Z,11.58
2022-09-18T09:23:31.415Z,11.70
2022-09-18T09:26:09.221Z,11.78
2022-09-18T09:29:16.700Z,11.91
2022-09-18T09:32:37.704Z,12.11
2022-09-18T09:35:45.784Z,12.02
2022-09-18T09:38:54.637Z,12.08
2022-09-18T09:41:24.477Z,12.06
2022-09-18T09:43:58.727Z,12.11
2022-09-18T09:46:54.503Z,11.94
2022-09-18T09:49:27.430Z,11.85
2022-09-18T09:52:00.455Z,11.90
2022-09-18T09:54:27.376Z,12.07
2022-09-18T09:57:28.846Z,11.96
2022-09-18T10:00:07.421Z,11.91
2022-09-18T10:03:00.719Z,11.78
2022-09-18T10:06:12.075Z,11.78
2022-09-18T10:08:47.760Z,11.79
2022-09-18T10:11:16.479Z,11.86
2022-09-18T10:13:48.869Z,12.04
2022-09-18T10:16:21.477Z,12.11
2022-09-18T10:18:49.865Z,12.15
2022-09-18T10:21:20.344Z,12.31
2022-09-18T10:23:57.945Z,12.33
2022-09-18T10:26:31.936Z,12.36
2022-09-18T10:28:59.733Z,12.48
2022-09-18T10:31:53.491Z,12.38
2022-09-18T10:34:34.163Z,12.34
2022-09-18T10:37:01.963Z,12.33
2022-09-18T10:39:31.561Z,12.32
2022-09-18T10:42:05.935Z,12.23
2022-09-18T10:44:38.326Z,12.27
2022-09-18T10:47:21.558Z,12.34
2022-09-18T10:50:11.790Z,12.38
2022-09-18T10:52:47.673Z,12.46
2022-09-18T10:55:28.007Z,12.57
2022-09-18T10:58:14.258Z,12.55
2022-09-18T11:00:59.321Z,12.59
2022-09-18T11:04:01.058Z,12.73
2022-09-18T11:06:32.615Z,12.76
2022-09-18T11:09:11.011Z,12.81
2022-09-18T11:11:47.480Z,12.89
2022-09-18T11:14:26.166Z,13.00
2022-09-18T11:17:01.336Z,13.07
2022-09-18T11:19:37.193Z,13.09
2022-09-18T11:22:39.025Z,12.92
2022-09-18T11:25:22.249Z,13.02
2022-09-18T11:27:59.909Z,13.16
2022-09-18T11:30:36.105Z,13.13
2022-09-18T11:33:36.870Z,13.19
2022-09-18T11:36:09.185Z,13.38
2022-09-18T11:38:46.332Z,13.44
2022-09-18T11:41:21.162Z,13.48
2022-09-18T11:44:03.870Z,13.52
2022-09-18T11:46:53.485Z,13.58
2022-09-18T11:49:28.483Z,13.47
2022-09-18T11:52:15.073Z,13.39
2022-09-18T11:54:51.690Z,13.35
2022-09-18T11:57:27.109Z,13.53
2022-09-18T12:00:02.912Z,13.82
2022-09-18T12:02:41.371Z,13.99
2022-09-18T12:05:29.035Z,13.98
2022-09-18T12:08:04.678Z,13.93
2022-09-18T12:10:56.751Z,13.84
2022-09-18T12:13:38.597Z,13.76
2022-09-18T12:16:30.799Z,13.68
2022-09-18T12:19:16.995Z,13.58
2022-09-18T12:21:57.609Z,13.61
2022-09-18T12:24:24.742Z,13.39
2022-09-18T12:27:09.010Z,13.38
2022-09-18T12:29:45.127Z,13.39
2022-09-18T12:32:20.667Z,13.39
2022-09-18T12:35:15.835Z,13.39
2022-09-18T12:38:01.032Z,13.35
2022-09-18T12:40:43.752Z,13.35
2022-09-18T12:43:26.308Z,13.36
2022-09-18T12:45:54.762Z,13.50
2022-09-18T12:48:45.466Z,13.47
2022-09-18T12:51:46.854Z,13.57
2022-09-18T12:54:31.869Z,13.53
2022-09-18T12:57:16.039Z,13.45
2022-09-18T13:00:14.652Z,13.33
2022-09-18T13:02:51.634Z,13.38
2022-09-18T13:05:27.698Z,13.48
2022-09-18T13:08:07.272Z,13.50
2022-09-18T13:10:45.976Z,13.39
2022-09-18T13:13:34.870Z,13.27
2022-09-18T13:16:20.439Z,13.26
2022-09-18T13:18:53.018Z,13.31
2022-09-18T13:21:36.506Z,13.12
2022-09-18T13:24:06.138Z,13.02
2022-09-18T13:26:37.494Z,13.11
2022-09-18T13:29:25.561Z,13.29
2022-09-18T13:31:55.482Z,13.35
2022-09-18T13:34:22.423Z,13.25
2022-09-18T13:36:49.249Z,13.28
2022-09-18T13:39:22.668Z,13.14
2022-09-18T13:41:53.095Z,13.12
2022-09-18T13:44:21.653Z,13.17
2022-09-18T13:46:50.584Z,13.14
2022-09-18T13:49:27.481Z,13.17
2022-09-18T13:51:54.920Z,13.19
2022-09-18T13:54:27.299Z,13.10
2022-09-18T13:57:03.315Z,13.05
2022-09-18T13:59:51.779Z,13.07
2022-09-18T14:02:26.849Z,13.11
2022-09-18T14:05:01.099Z,13.08
2022-09-18T14:07:27.861Z,13.05
2022-09-18T14:10:04.575Z,13.10
2022-09-18T14:12:35.796Z,13.04
2022-09-18T14:15:05.190Z,13.10
2022-09-18T14:17:33.880Z,12.97
2022-09-18T14:20:26.453Z,12.95
2022-09-18T14:22:53.299Z,12.94
2022-09-18T14:25:46.649Z,12.90
2022-09-18T14:28:13.345Z,12.91
2022-09-18T14:30:40.156Z,12.96
2022-09-18T14:33:20.823Z,12.82
2022-09-18T14:36:05.124Z,12.87
2022-09-18T14:38:31.813Z,12.82
2022-09-18T14:41:07.428Z,12.78
2022-09-18T14:43:34.972Z,12.83
2022-09-18T14:46:02.756Z,12.83
2022-09-18T14:48:35.222Z,12.78
2022-09-18T14:51:16.975Z,12.84
2022-09-18T14:53:48.764Z,12.87
2022-09-18T14:56:21.057Z,12.91
2022-09-18T14:58:48.024Z,12.92
2022-09-18T15:01:25.510Z,12.87
2022-09-18T15:03:54.497Z,12.79
2022-09-18T15:06:28.356Z,12.73
2022-09-18T15:08:56.989Z,12.65
2022-09-18T15:11:32.071Z,12.63
2022-09-18T15:14:27.072Z,12.55
2022-09-18T15:17:01.792Z,12.50
2022-09-18T15:19:30.307Z,12.46
2022-09-18T15:21:58.737Z,12.36
2022-09-18T15:24:26.752Z,12.31
2022-09-18T15:26:58.935Z,12.33
2022-09-18T15:29:57.932Z,12.27
2022-09-18T15:32:35.270Z,12.27
2022-09-18T15:35:06.340Z,12.21
2022-09-18T15:37:33.171Z,12.23
2022-09-18T15:40:07.514Z,12.19
2022-09-18T15:42:50.892Z,12.17
2022-09-18T15:45:21.514Z,12.17
2022-09-18T15:47:49.028Z,12.11
2022-09-18T15:50:15.728Z,12.11
2022-09-18T15:53:06.958Z,12.08
2022-09-18T15:55:53.355Z,12.06
2022-09-18T15:58:41.471Z,12.10
2022-09-18T16:01:19.369Z,12.06
2022-09-18T16:03:47.111Z,12.03
2022-09-18T16:06:25.848Z,12.01
2022-09-18T16:08:55.248Z,11.95
2022-09-18T16:11:42.691Z,11.94
2022-09-18T16:14:37.562Z,11.94
2022-09-18T16:17:29.259Z,11.91
2022-09-18T16:20:02.075Z,11.84
2022-09-18T16:22:30.609Z,11.82
2022-09-18T16:24:58.351Z,11.79
2022-09-18T16:27:26.469Z,11.78
2022-09-18T16:29:53.291Z,11.78
2022-09-18T16:32:20.129Z,11.78
2022-09-18T16:34:46.817Z,11.76
2022-09-18T16:37:14.681Z,11.81
2022-09-18T16:39:41.471Z,11.77
2022-09-18T16:42:17.306Z,11.74
2022-09-18T16:44:45.172Z,11.74
2022-09-18T16:47:15.513Z,11.78
2022-09-18T16:49:45.772Z,11.74
2022-09-18T16:52:13.333Z,11.70
2022-09-18T16:54:40.065Z,11.73
2022-09-18T16:57:15.114Z,11.72
2022-09-18T16:59:43.285Z,11.71
2022-09-18T17:02:13.406Z,11.69
2022-09-18T17:04:40.206Z,11.68
2022-09-18T17:07:07.308Z,11.65
2022-09-18T17:09:34.357Z,11.62
2022-09-18T17:12:01.615Z,11.61
2022-09-18T17:14:28.812Z,11.60
2022-09-18T17:16:56.770Z,11.61
2022-09-18T17:19:25.151Z,11.68
2022-09-18T17:21:52.270Z,11.62
2022-09-18T17:24:20.656Z,11.59
2022-09-18T17:26:48.077Z,11.59
2022-09-18T17:29:15.299Z,11.59
2022-09-18T17:31:43.809Z,11.59
2022-09-18T17:34:11.644Z,11.60
2022-09-18T17:36:39.917Z,11.59
2022-09-18T17:39:07.817Z,11.57
2022-09-18T17:41:35.596Z,11.53
2022-09-18T17:44:03.218Z,11.54
2022-09-18T17:46:30.544Z,11.48
2022-09-18T17:48:59.874Z,11.48
2022-09-18T17:51:29.142Z,11.42
2022-09-18T17:53:59.022Z,11.46
2022-09-18T17:56:26.504Z,11.47
2022-09-18T17:58:53.813Z,11.48
2022-09-18T18:01:21.016Z,11.45
2022-09-18T18:03:48.391Z,11.48
2022-09-18T18:06:21.529Z,11.50
2022-09-18T18:08:50.280Z,11.46
2022-09-18T18:11:20.075Z,11.50
2022-09-18T18:13:46.884Z,11.51
2022-09-18T18:16:22.263Z,11.53
2022-09-18T18:18:54.901Z,11.51
2022-09-18T18:21:22.576Z,11.52
2022-09-18T18:23:55.258Z,11.54
2022-09-18T18:26:22.127Z,11.55
2022-09-18T18:28:49.063Z,11.56
2022-09-18T18:31:16.404Z,11.56
2022-09-18T18:33:45.277Z,11.55
2022-09-18T18:36:14.938Z,11.56
2022-09-18T18:38:45.131Z,11.57
2022-09-18T18:41:13.965Z,11.59
2022-09-18T18:43:41.484Z,11.68
2022-09-18T18:46:10.712Z,11.66
2022-09-18T18:48:37.788Z,11.67
2022-09-18T18:51:16.355Z,11.67
2022-09-18T18:53:45.494Z,11.67
2022-09-18T18:56:17.019Z,11.70
2022-09-18T18:58:44.530Z,11.71
2022-09-18T19:01:14.806Z,11.73
2022-09-18T19:03:44.512Z,11.72
2022-09-18T19:06:12.237Z,11.71
2022-09-18T19:08:39.163Z,11.75
2022-09-18T19:11:06.780Z,11.77
2022-09-18T19:13:34.665Z,11.80
2022-09-18T19:16:03.239Z,11.83
2022-09-18T19:18:30.406Z,11.87
2022-09-18T19:20:59.066Z,11.87
2022-09-18T19:23:26.317Z,11.81
2022-09-18T19:25:56.835Z,11.83
2022-09-18T19:28:24.341Z,11.82
2022-09-18T19:30:51.166Z,11.82
2022-09-18T19:33:18.592Z,11.82
2022-09-18T19:35:45.462Z,11.85
2022-09-18T19:38:12.840Z,11.87
2022-09-18T19:40:40.053Z,11.89
2022-09-18T19:43:13.231Z,11.92
2022-09-18T19:45:42.309Z,11.89
2022-09-18T19:48:20.059Z,11.87
2022-09-18T19:50:47.000Z,11.89
2022-09-18T19:53:13.638Z,11.88
2022-09-18T19:55:40.772Z,11.92
2022-09-18T19:58:09.157Z,11.93
2022-09-18T20:00:40.664Z,11.90
2022-09-18T20:03:08.078Z,11.86
2022-09-18T20:05:39.784Z,11.85
2022-09-18T20:08:07.835Z,11.92
2022-09-18T20:10:37.465Z,11.92
2022-09-18T20:13:04.899Z,11.91
2022-09-18T20:15:31.715Z,11.90
2022-09-18T20:17:58.502Z,11.88
2022-09-18T20:20:26.741Z,11.93
2022-09-18T20:22:55.248Z,11.92
2022-09-18T20:25:22.481Z,11.88
2022-09-18T20:27:49.347Z,11.96
2022-09-18T20:30:16.170Z,11.95
2022-09-18T20:32:42.976Z,11.93
2022-09-18T20:35:10.182Z,11.98
2022-09-18T20:37:37.004Z,11.98
2022-09-18T20:40:06.357Z,11.98
2022-09-18T20:42:33.546Z,12.00
2022-09-18T20:45:01.692Z,12.04
2022-09-18T20:47:32.254Z,12.07
2022-09-18T20:49:58.956Z,12.03
2022-09-18T20:52:25.696Z,12.03
2022-09-18T20:54:53.145Z,12.01
2022-09-18T20:57:19.986Z,12.03
2022-09-18T20:59:46.766Z,11.99
2022-09-18T21:02:13.618Z,11.94
2022-09-18T21:04:43.326Z,11.90
2022-09-18T21:07:12.158Z,11.88
2022-09-18T21:09:39.057Z,11.81
2022-09-18T21:12:05.969Z,11.79
2022-09-18T21:14:32.759Z,11.74
2022-09-18T21:16:59.494Z,11.78
2022-09-18T21:19:26.439Z,11.79
2022-09-18T21:21:54.083Z,11.81
2022-09-18T21:24:20.823Z,11.78
2022-09-18T21:26:49.421Z,11.76
2022-09-18T21:29:19.174Z,11.71
2022-09-18T21:31:49.889Z,11.71
2022-09-18T21:34:24.767Z,11.75
2022-09-18T21:36:57.100Z,11.70
2022-09-18T21:39:25.088Z,11.72
2022-09-18T21:41:51.894Z,11.72
2022-09-18T21:44:21.540Z,11.70
2022-09-18T21:46:48.240Z,11.71
2022-09-18T21:49:15.120Z,11.67
2022-09-18T21:51:42.470Z,11.67
2022-09-18T21:54:13.750Z,11.70
2022-09-18T21:56:41.189Z,11.73
2022-09-18T21:59:09.960Z,11.72
2022-09-18T22:01:37.602Z,11.71
2022-09-18T22:04:06.012Z,11.69
2022-09-18T22:06:41.214Z,11.71
2022-09-18T22:09:11.011Z,11.67
2022-09-18T22:11:38.439Z,11.64
2022-09-18T22:14:17.812Z,11.61
2022-09-18T22:16:45.412Z,11.61
2022-09-18T22:19:13.201Z,11.63
2022-09-18T22:21:42.503Z,11.58
2022-09-18T22:24:12.903Z,11.59
2022-09-18T22:26:42.435Z,11.58
2022-09-18T22:29:21.260Z,11.58
2022-09-18T22:31:48.575Z,11.59
2022-09-18T22:34:18.607Z,11.54
2022-09-18T22:36:46.971Z,11.57
2022-09-18T22:39:16.504Z,11.57
2022-09-18T22:41:44.863Z,11.54
2022-09-18T22:44:12.758Z,11.49
2022-09-18T22:46:41.583Z,11.49
2022-09-18T22:49:09.216Z,11.46
2022-09-18T22:51:36.108Z,11.46
2022-09-18T22:54:04.798Z,11.43
2022-09-18T22:56:32.423Z,11.35
2022-09-18T22:58:59.126Z,11.32
2022-09-18T23:01:39.152Z,11.23
2022-09-18T23:04:06.022Z,11.21
2022-09-18T23:06:33.567Z,11.15
2022-09-18T23:09:01.458Z,11.10
2022-09-18T23:11:32.218Z,11.05
2022-09-18T23:14:01.530Z,11.05
2022-09-18T23:16:30.679Z,11.00
2022-09-18T23:19:03.084Z,10.95
2022-09-18T23:21:32.429Z,10.94
2022-09-18T23:24:08.600Z,10.92
2022-09-18T23:26:39.606Z,10.91
2022-09-18T23:29:09.688Z,10.85
2022-09-18T23:31:40.583Z,10.87
2022-09-18T23:34:16.625Z,10.85
2022-09-18T23:36:45.203Z,10.84
2022-09-18T23:39:14.754Z,10.88
2022-09-18T23:41:42.992Z,10.86
2022-09-18T23:44:12.511Z,10.87
2022-09-18T23:46:39.885Z,10.86
2022-09-18T23:49:07.933Z,10.83
2022-09-18T23:51:40.170Z,10.83
2022-09-18T23:54:08.274Z,10.79
2022-09-18T23:56:35.321Z,10.78
2022-09-18T23:59:06.858Z,10.75
